logo
Search for airport 
image banner adimage banner adimage banner ad
image banner ad

FLJH - Pilatus Helipad

Located in , Zambia

ICAO - , IATA -

Data provided by Airmate  

General information

Coordinates: S15°27'36" E28°22'53"
Elevation is 4242 feet MSL.
 
View others Airports in Lusaka Province

Operational data

Special qualification required
Current time UTC:
Current local time:
Weather at : FLKK - Kenneth Kaunda Intl ( 16 km )
TAF: FLKK 161000Z 1612/1718 08010KT 9000 HZ NSC FM161600 13005KT CAVOK BECMG 1704/1706 VRB04KT 8000 HZ NSC BECMG 1707/1709 12010KT
View NOTAMs / SUP AIP / TFR affecting this airport [VIEW]
Communications frequencies: [VIEW]

Runways:

Airport contact information

Address: Zambia

Satellite view of FLJH